Andrews Air Force Base Camp Springs US
ICAO: KADW
IATA: ADW
Category: Large
Scheduled Services: No

Elevation: 280 ft
TransAlt. 18000 ft.

Airport Communications:
POTOMAC APP:119.3
ATIS:113.1
CLNC DEL:127.55
POTOMAC DEP:125.65
GND:121.8
AFRC OPS:143.8
PMSV METRO:34.46
COMD POST:141.55
PTD:139.3
TWR:118.4

KADW Zoom In..

If you have problems with the map follow the link
https://www.worldairports.se/pages/airport.php?
ICAO=KADW

Runways:

(A) RW 01L length 9318 ft width 200 ft
ILS 111.50 / hdg 10

(B) RW 01R length 9756 ft width 150 ft
ILS 110.50 / hdg 10

(C) RW 19L length 9756 ft width 150 ft
ILS 110.50 / hdg 190

(D) RW 19R length 9318 ft width 200 ft
ILS 111.50 / hdg 190

Location; KADW
Day. 13 / Time. 20.45 Zulu
* Altimeter: 30.10
* Temperature: 04° c. 39.2°f.
* Wind from: 360° Speed 05 kn.
Dewpoint: 04° c.
Visibility: 3/4 Statute Miles.
Clouds: Overcast 200 ft.
Conditions: Light Rain.Conditions: Mist.

KADW 132045Z AUTO 36005KT 3/4SM -RA BR OVC002 04/04 A3010 RMK AO2 RAE19DZB19E27RAB45 SLP202 RVRNO $


Wind From 360°
Speed 05 kn.

 
 
jpsmedia worldairports.se 2019   terms of use